Time;durP1;ratioP1;P1;durP2;ratioP2;P2;SDS_P1;SDS_P2;PMS_P1;PMS_P2;Temp;Humidity;BMP_temperature;BMP_pressure;BME280_temperature;BME280_humidity;BME280_pressure;Samples;Min_cycle;Max_cycle;Signal;HPM_P1;HPM_P2
2024/02/07 00:01:30;;;;;;;2.17;2.03;;;6.50;99.40;;;;;;5053124;28;20175;-60
2024/02/07 00:03:59;;;;;;;2.93;2.60;;;6.50;99.40;;;;;;5052868;28;20204;-60
2024/02/07 00:06:25;;;;;;;5.05;2.90;;;6.50;99.40;;;;;;5052467;28;20233;-59
2024/02/07 00:08:50;;;;;;;3.07;2.63;;;6.50;99.40;;;;;;5053016;28;20170;-59
2024/02/07 00:11:16;;;;;;;2.23;2.00;;;6.50;99.30;;;;;;5052725;28;20168;-60
2024/02/07 00:13:41;;;;;;;5.47;2.67;;;6.50;99.20;;;;;;5052628;28;20738;-59
2024/02/07 00:16:07;;;;;;;6.07;3.20;;;6.50;99.30;;;;;;5052438;28;20171;-60
2024/02/07 00:18:33;;;;;;;2.13;1.33;;;6.50;99.30;;;;;;5052546;28;20214;-60
2024/02/07 00:20:58;;;;;;;4.00;2.10;;;6.50;99.40;;;;;;5052520;28;20168;-59
2024/02/07 00:23:24;;;;;;;5.10;2.73;;;6.50;99.50;;;;;;5052496;28;20233;-59
2024/02/07 00:25:49;;;;;;;2.60;2.40;;;6.50;99.30;;;;;;5052456;28;20551;-60
2024/02/07 00:28:15;;;;;;;3.63;3.20;;;6.50;99.20;;;;;;5052123;28;20174;-59
2024/02/07 00:30:41;;;;;;;2.33;2.13;;;6.30;99.20;;;;;;5052290;28;20177;-59
2024/02/07 00:33:06;;;;;;;6.80;2.33;;;6.30;99.60;;;;;;5052064;28;20221;-60
2024/02/07 00:35:32;;;;;;;6.20;2.70;;;6.30;99.80;;;;;;5052139;28;20197;-59
2024/02/07 00:37:57;;;;;;;2.77;2.20;;;6.40;99.80;;;;;;5051944;28;20173;-60
2024/02/07 00:40:23;;;;;;;3.23;2.70;;;6.40;99.60;;;;;;5052223;28;20171;-60
2024/02/07 00:42:50;;;;;;;5.77;2.30;;;6.40;99.50;;;;;;5052078;28;20316;-59
2024/02/07 00:45:16;;;;;;;5.35;2.70;;;6.50;99.60;;;;;;5052159;28;20176;-60
2024/02/07 00:47:42;;;;;;;3.70;2.90;;;6.50;99.50;;;;;;5051730;28;20182;-60
2024/02/07 00:50:08;;;;;;;2.87;2.37;;;6.60;99.40;;;;;;5051637;28;20184;-60
2024/02/07 00:52:33;;;;;;;3.60;2.75;;;6.60;99.20;;;;;;5051946;28;20194;-60
2024/02/07 00:54:59;;;;;;;2.23;2.03;;;6.70;99.10;;;;;;5051864;28;20579;-60
2024/02/07 00:57:25;;;;;;;3.33;2.40;;;6.60;99.10;;;;;;5051663;28;20164;-59
2024/02/07 00:59:50;;;;;;;5.43;2.70;;;6.70;99.20;;;;;;5051880;28;20176;-59
2024/02/07 01:02:16;;;;;;;6.53;3.60;;;6.70;99.30;;;;;;5051664;28;20712;-59
2024/02/07 01:04:41;;;;;;;4.10;3.00;;;6.60;99.40;;;;;;5052013;28;20579;-60
2024/02/07 01:07:07;;;;;;;2.67;2.00;;;6.50;99.60;;;;;;5051627;28;20519;-59
2024/02/07 01:09:34;;;;;;;2.80;2.27;;;6.60;99.70;;;;;;5051845;28;20280;-60
2024/02/07 01:12:01;;;;;;;2.15;2.05;;;6.60;99.60;;;;;;5051635;28;20677;-60
2024/02/07 01:14:27;;;;;;;3.60;2.70;;;6.60;99.60;;;;;;5051534;28;20220;-59
2024/02/07 01:16:53;;;;;;;7.63;2.80;;;6.60;99.60;;;;;;5048562;28;20169;-59
2024/02/07 01:19:21;;;;;;;5.00;3.38;;;6.70;99.60;;;;;;5051481;28;20189;-59
2024/02/07 01:21:46;;;;;;;2.03;1.70;;;6.70;99.60;;;;;;5051605;28;20165;-59
2024/02/07 01:24:12;;;;;;;4.07;3.20;;;6.60;99.70;;;;;;5050555;28;20183;-59
2024/02/07 01:26:39;;;;;;;2.80;1.88;;;6.50;99.80;;;;;;5049847;28;20445;-59
2024/02/07 01:29:05;;;;;;;5.10;2.63;;;6.60;99.90;;;;;;5051392;28;20257;-60
2024/02/07 01:31:31;;;;;;;2.35;2.03;;;6.60;99.90;;;;;;5051106;28;20184;-59
2024/02/07 01:33:58;;;;;;;4.73;3.80;;;6.60;99.90;;;;;;5051318;28;20201;-60
2024/02/07 01:36:24;;;;;;;3.17;2.70;;;6.60;99.90;;;;;;5050842;28;20164;-60
2024/02/07 01:38:51;;;;;;;3.10;2.80;;;6.70;99.90;;;;;;5051476;28;20192;-59
2024/02/07 01:41:16;;;;;;;3.10;2.80;;;6.60;99.90;;;;;;5051288;28;20923;-59
2024/02/07 01:43:42;;;;;;;3.90;2.67;;;6.70;99.90;;;;;;5051277;28;20211;-60
2024/02/07 01:46:08;;;;;;;4.00;3.30;;;6.60;99.90;;;;;;5050934;28;20172;-59
2024/02/07 01:48:34;;;;;;;3.60;3.30;;;6.70;99.90;;;;;;5051242;28;20776;-60
2024/02/07 01:51:05;;;;;;;5.68;2.85;;;6.70;99.80;;;;;;5051172;28;20411;-59
2024/02/07 01:53:31;;;;;;;4.50;3.30;;;6.80;99.90;;;;;;5051281;28;20196;-60
2024/02/07 01:55:58;;;;;;;5.65;3.30;;;6.80;99.90;;;;;;5050980;28;20300;-60
2024/02/07 01:58:29;;;;;;;6.50;3.30;;;6.70;99.90;;;;;;5050986;28;20170;-59
2024/02/07 02:00:56;;;;;;;4.97;3.10;;;6.70;99.90;;;;;;5052441;28;20553;-59
2024/02/07 02:03:21;;;;;;;5.63;2.75;;;6.70;99.90;;;;;;5055345;28;20251;-60
2024/02/07 02:05:47;;;;;;;5.50;2.90;;;6.70;99.90;;;;;;5055106;28;20207;-59
2024/02/07 02:08:13;;;;;;;2.83;2.43;;;6.70;99.90;;;;;;5054817;28;20252;-59
2024/02/07 02:10:40;;;;;;;4.20;3.15;;;6.70;99.90;;;;;;5055019;28;20181;-59
2024/02/07 02:13:06;;;;;;;5.45;3.13;;;6.70;99.90;;;;;;5054911;28;20227;-59
2024/02/07 02:15:33;;;;;;;2.85;2.40;;;6.70;99.90;;;;;;5054887;28;20198;-59
2024/02/07 02:17:58;;;;;;;4.68;2.85;;;6.70;99.90;;;;;;5054765;28;20653;-59
2024/02/07 02:20:24;;;;;;;5.30;3.50;;;6.70;99.90;;;;;;5054880;28;20202;-59
2024/02/07 02:23:06;;;;;;;3.53;2.57;;;6.70;99.90;;;;;;5054874;28;20284;-60
2024/02/07 02:25:37;;;;;;;4.43;2.55;;;6.50;99.90;;;;;;5054755;28;20415;-59
2024/02/07 02:28:17;;;;;;;4.32;2.20;;;6.40;99.90;;;;;;5054470;28;20255;-59
2024/02/07 02:30:54;;;;;;;4.28;3.17;;;6.40;99.90;;;;;;5054656;28;20188;-59
2024/02/07 02:33:22;;;;;;;4.07;3.67;;;6.40;99.90;;;;;;5054474;28;20217;-59
2024/02/07 02:35:49;;;;;;;4.50;3.95;;;6.40;99.90;;;;;;5054529;28;20201;-59
2024/02/07 02:38:15;;;;;;;3.20;2.90;;;6.40;99.90;;;;;;5054387;28;20176;-59
2024/02/07 02:40:43;;;;;;;4.10;3.47;;;6.40;99.90;;;;;;5054720;28;20275;-59
2024/02/07 02:43:09;;;;;;;3.30;3.03;;;6.50;99.90;;;;;;5054286;28;20283;-59
2024/02/07 02:45:36;;;;;;;5.32;2.75;;;6.50;99.90;;;;;;5054410;28;20181;-59
2024/02/07 02:48:02;;;;;;;4.28;2.83;;;6.60;99.90;;;;;;5054074;28;20238;-60
2024/02/07 02:50:29;;;;;;;3.00;2.70;;;6.60;99.90;;;;;;5054293;28;20197;-59
2024/02/07 02:52:55;;;;;;;5.82;3.55;;;6.70;99.90;;;;;;5054253;28;20271;-60
2024/02/07 02:55:21;;;;;;;8.25;3.55;;;6.70;99.90;;;;;;5054415;28;20216;-60
2024/02/07 02:57:47;;;;;;;4.40;3.50;;;6.70;99.90;;;;;;5053956;28;20686;-59
2024/02/07 03:00:14;;;;;;;3.90;3.30;;;6.60;99.90;;;;;;5054076;28;20298;-59
2024/02/07 03:02:43;;;;;;;4.75;2.72;;;6.70;99.90;;;;;;5053999;28;20482;-59
2024/02/07 03:08:05;;;;;;;3.08;2.78;;;6.80;99.90;;;;;;5054090;28;20215;-59
2024/02/07 03:10:33;;;;;;;2.72;2.50;;;6.80;99.90;;;;;;5054039;28;20172;-59
2024/02/07 03:13:00;;;;;;;3.90;3.22;;;6.80;99.90;;;;;;5053399;28;20203;-59
2024/02/07 03:15:26;;;;;;;3.25;2.03;;;6.70;99.90;;;;;;5053619;28;20214;-59
2024/02/07 03:17:52;;;;;;;14.47;3.23;;;6.70;99.90;;;;;;5053494;28;20161;-59
2024/02/07 03:20:18;;;;;;;3.97;2.20;;;6.70;99.90;;;;;;5053812;28;20408;-59
2024/02/07 03:22:45;;;;;;;4.63;2.83;;;6.70;99.90;;;;;;5053840;28;20270;-59
2024/02/07 03:25:16;;;;;;;3.80;2.85;;;6.80;99.80;;;;;;5053675;28;20407;-59
2024/02/07 03:27:44;;;;;;;5.35;2.88;;;6.80;99.70;;;;;;5053996;28;20213;-59
2024/02/07 03:30:17;;;;;;;2.47;2.00;;;6.80;99.70;;;;;;5053454;28;20190;-59
2024/02/07 03:32:44;;;;;;;16.80;3.88;;;6.90;99.80;;;;;;5109082;22;20271;-67
2024/02/07 03:35:10;;;;;;;4.65;3.15;;;6.80;99.60;;;;;;5073458;28;20729;-66
2024/02/07 03:37:36;;;;;;;5.17;2.73;;;6.90;99.80;;;;;;5072358;28;20310;-67
2024/02/07 03:40:05;;;;;;;4.57;3.43;;;6.80;99.70;;;;;;5072798;28;20171;-67
2024/02/07 03:42:31;;;;;;;5.45;3.65;;;6.80;99.70;;;;;;5073279;28;20196;-69
2024/02/07 03:45:07;;;;;;;3.72;2.65;;;6.90;99.60;;;;;;5073073;28;20633;-69
2024/02/07 03:47:33;;;;;;;3.90;2.47;;;7.00;99.50;;;;;;5073003;28;20660;-69
2024/02/07 03:49:59;;;;;;;4.18;2.75;;;7.00;99.20;;;;;;5073134;28;20183;-69
2024/02/07 03:52:25;;;;;;;4.60;2.97;;;6.90;98.90;;;;;;5071786;28;20189;-69
2024/02/07 03:54:51;;;;;;;3.20;2.90;;;6.90;99.20;;;;;;5072910;28;20193;-69
2024/02/07 03:57:20;;;;;;;4.13;3.23;;;6.90;99.20;;;;;;5072949;28;20507;-69
2024/02/07 03:59:49;;;;;;;3.38;2.15;;;6.90;99.30;;;;;;5072896;28;20453;-70
2024/02/07 04:02:21;;;;;;;4.90;3.10;;;6.80;99.40;;;;;;5073118;28;20177;-70
2024/02/07 04:04:55;;;;;;;2.85;2.65;;;6.80;99.50;;;;;;5071641;28;20180;-69
2024/02/07 04:07:25;;;;;;;2.78;2.30;;;6.80;99.40;;;;;;5072807;28;20176;-69
2024/02/07 04:09:52;;;;;;;3.88;3.47;;;6.70;99.40;;;;;;5072774;28;20179;-69
2024/02/07 05:17:21;;;;;;;3.25;2.10;;;6.70;99.90;;;;;;5071676;28;20651;-69
2024/02/07 05:19:50;;;;;;;4.47;3.10;;;6.70;99.90;;;;;;5070379;28;20173;-69
2024/02/07 05:22:17;;;;;;;7.82;4.75;;;6.70;99.90;;;;;;5071366;28;20610;-69
2024/02/07 05:24:47;;;;;;;5.82;3.25;;;6.60;99.90;;;;;;5071468;28;20228;-69
2024/02/07 05:27:13;;;;;;;5.13;3.25;;;6.60;99.90;;;;;;5071411;28;20184;-69
2024/02/07 05:29:39;;;;;;;6.20;2.40;;;6.60;99.90;;;;;;5071515;28;20168;-69
2024/02/07 05:32:06;;;;;;;3.13;2.83;;;6.60;99.90;;;;;;5071701;28;20958;-69
2024/02/07 05:34:33;;;;;;;8.23;3.75;;;6.60;99.90;;;;;;5071123;28;20219;-70
2024/02/07 05:36:59;;;;;;;5.28;4.50;;;6.60;99.90;;;;;;5070659;28;20182;-69
2024/02/07 05:39:26;;;;;;;9.77;3.30;;;6.60;99.90;;;;;;5071446;28;20167;-69
2024/02/07 05:41:52;;;;;;;3.22;2.92;;;6.70;99.90;;;;;;5071279;28;20163;-69
2024/02/07 05:44:18;;;;;;;8.75;3.78;;;6.70;99.90;;;;;;5071267;28;20569;-69
2024/02/07 05:46:44;;;;;;;3.03;2.43;;;6.60;99.90;;;;;;5069788;28;20185;-69
2024/02/07 05:49:13;;;;;;;4.00;3.30;;;6.50;99.90;;;;;;5071380;28;21108;-69
2024/02/07 05:51:39;;;;;;;4.78;3.03;;;6.60;99.90;;;;;;5071199;28;20195;-69
2024/02/07 05:54:07;;;;;;;3.58;2.55;;;6.60;99.90;;;;;;5069883;28;20582;-69
2024/02/07 05:56:33;;;;;;;2.95;2.22;;;6.60;99.90;;;;;;5070940;28;20752;-69
2024/02/07 05:58:59;;;;;;;4.25;2.30;;;6.60;99.90;;;;;;5071219;28;20173;-69
2024/02/07 06:01:26;;;;;;;2.80;2.60;;;6.60;99.90;;;;;;5071186;28;20177;-69
2024/02/07 06:03:52;;;;;;;5.45;3.33;;;6.60;99.90;;;;;;5071136;28;20820;-70
2024/02/07 06:06:18;;;;;;;5.95;2.67;;;6.60;99.90;;;;;;5070699;28;20175;-68
2024/02/07 06:08:47;;;;;;;2.70;2.50;;;6.60;99.90;;;;;;5071127;28;20185;-69
2024/02/07 06:11:13;;;;;;;2.53;2.08;;;6.70;99.90;;;;;;5071015;28;20411;-69
2024/02/07 06:13:39;;;;;;;3.92;2.42;;;6.60;99.90;;;;;;5070977;28;20275;-69
2024/02/07 06:16:05;;;;;;;4.57;2.10;;;6.70;99.90;;;;;;5070675;28;20338;-69
2024/02/07 06:18:30;;;;;;;3.60;2.67;;;6.60;99.90;;;;;;5071016;28;20417;-69
2024/02/07 06:20:56;;;;;;;3.67;2.60;;;6.70;99.90;;;;;;5070949;28;20402;-70
2024/02/07 06:23:22;;;;;;;3.42;2.30;;;6.70;99.90;;;;;;5070978;28;20231;-69
2024/02/07 06:25:51;;;;;;;7.13;3.23;;;6.70;99.90;;;;;;5070966;28;20180;-69
2024/02/07 06:28:17;;;;;;;4.07;2.50;;;6.60;99.90;;;;;;5070721;28;20612;-69
2024/02/07 06:30:43;;;;;;;2.97;2.67;;;6.60;99.90;;;;;;5070926;28;20208;-69
2024/02/07 06:33:09;;;;;;;5.22;2.75;;;6.60;99.90;;;;;;5070700;28;20235;-69
2024/02/07 06:35:35;;;;;;;2.47;2.30;;;6.70;99.90;;;;;;5070713;28;20200;-70
2024/02/07 06:38:00;;;;;;;2.37;2.27;;;6.70;99.90;;;;;;5070627;28;20684;-69
2024/02/07 06:40:28;;;;;;;4.80;2.87;;;6.70;99.90;;;;;;5070969;28;20203;-69
2024/02/07 06:42:54;;;;;;;3.60;2.63;;;6.80;99.90;;;;;;5069663;28;20597;-70
2024/02/07 06:45:19;;;;;;;6.93;2.63;;;6.80;99.90;;;;;;5070816;28;20173;-69
2024/02/07 06:47:46;;;;;;;3.27;2.40;;;6.80;99.90;;;;;;5072721;28;20468;-69
2024/02/07 06:50:11;;;;;;;5.55;2.53;;;6.70;99.90;;;;;;5074763;28;20173;-70
2024/02/07 06:52:38;;;;;;;3.00;2.30;;;6.50;99.90;;;;;;5074226;28;20571;-69
2024/02/07 06:55:04;;;;;;;7.72;2.25;;;6.50;99.90;;;;;;5074181;28;20204;-69
2024/02/07 06:57:30;;;;;;;3.92;3.60;;;6.50;99.90;;;;;;5073897;28;20172;-69
2024/02/07 06:59:55;;;;;;;3.07;2.17;;;6.40;99.90;;;;;;5074175;28;20641;-70
2024/02/07 07:02:21;;;;;;;5.00;2.80;;;6.30;99.90;;;;;;5073710;28;20197;-69
2024/02/07 07:04:46;;;;;;;6.30;2.90;;;6.30;99.90;;;;;;5074076;28;20208;-70
2024/02/07 07:07:12;;;;;;;8.30;3.30;;;6.20;99.90;;;;;;5073693;28;20170;-69
2024/02/07 07:09:38;;;;;;;4.27;2.73;;;6.20;99.90;;;;;;5074107;28;20246;-69
2024/02/07 07:12:04;;;;;;;13.63;3.20;;;6.20;99.90;;;;;;5073613;28;20607;-69
2024/02/07 07:14:29;;;;;;;6.87;2.50;;;6.10;99.90;;;;;;5070186;28;20283;-69
2024/02/07 07:16:55;;;;;;;3.10;2.80;;;6.10;99.90;;;;;;5053550;28;20767;-69
2024/02/07 07:19:21;;;;;;;3.67;3.10;;;6.10;99.90;;;;;;5053272;28;20181;-69
2024/02/07 07:21:46;;;;;;;5.20;3.07;;;6.10;99.90;;;;;;5053476;28;20177;-69
2024/02/07 07:24:12;;;;;;;7.20;2.57;;;6.00;99.90;;;;;;5053190;28;20427;-69
2024/02/07 07:26:38;;;;;;;2.90;2.50;;;6.10;99.90;;;;;;5052769;28;20407;-69
2024/02/07 07:29:04;;;;;;;4.87;3.70;;;6.10;99.90;;;;;;5053587;28;20408;-69
2024/02/07 07:31:30;;;;;;;5.27;3.30;;;6.10;99.90;;;;;;5053449;28;20558;-69
2024/02/07 07:33:56;;;;;;;3.87;2.90;;;6.20;99.90;;;;;;5051439;28;20221;-69
2024/02/07 07:36:26;;;;;;;4.47;3.40;;;6.30;99.90;;;;;;5051340;28;20416;-69
2024/02/07 07:38:52;;;;;;;4.00;3.10;;;6.20;99.90;;;;;;5053524;28;20555;-69
2024/02/07 07:41:18;;;;;;;3.13;2.83;;;6.30;99.90;;;;;;5053686;28;20184;-69
2024/02/07 07:43:43;;;;;;;3.17;2.00;;;6.40;99.90;;;;;;5053195;28;20194;-68
2024/02/07 07:46:09;;;;;;;6.10;2.40;;;6.50;99.90;;;;;;5052817;28;20176;-69
2024/02/07 07:48:34;;;;;;;3.03;2.30;;;6.50;99.90;;;;;;5051999;28;20570;-69
2024/02/07 07:51:00;;;;;;;3.43;2.93;;;6.50;99.90;;;;;;5053368;28;20201;-70
2024/02/07 07:53:26;;;;;;;8.18;3.20;;;6.60;99.90;;;;;;5053041;28;20607;-69
2024/02/07 07:55:52;;;;;;;3.57;2.70;;;6.60;99.90;;;;;;5052894;28;20306;-69
2024/02/07 07:58:17;;;;;;;6.03;2.50;;;6.80;99.90;;;;;;5052765;28;20673;-68
2024/02/07 08:00:43;;;;;;;4.03;2.27;;;6.70;99.90;;;;;;5052721;28;20572;-69
2024/02/07 08:03:09;;;;;;;2.37;2.17;;;6.70;99.90;;;;;;5051282;28;20193;-70
2024/02/07 08:05:35;;;;;;;7.47;3.47;;;6.80;99.90;;;;;;5052929;28;20170;-69
2024/02/07 08:08:01;;;;;;;2.70;2.10;;;6.70;99.90;;;;;;5052654;28;20261;-68
2024/02/07 08:10:27;;;;;;;3.97;2.50;;;6.70;99.90;;;;;;5052678;28;20170;-68
2024/02/07 08:12:52;;;;;;;4.00;2.87;;;6.70;99.90;;;;;;5051170;28;20337;-69
2024/02/07 08:15:18;;;;;;;4.20;3.50;;;6.70;99.90;;;;;;5051056;28;20244;-64
2024/02/07 08:17:44;;;;;;;4.47;2.77;;;6.90;99.90;;;;;;5051952;28;20178;-64
2024/02/07 08:20:10;;;;;;;4.40;2.67;;;7.00;99.90;;;;;;5065804;28;20605;-65
2024/02/07 08:22:36;;;;;;;8.52;2.60;;;7.10;99.90;;;;;;5072029;28;20205;-65
2024/02/07 08:25:01;;;;;;;3.90;2.43;;;7.10;99.90;;;;;;5067745;28;20253;-65
2024/02/07 08:27:27;;;;;;;7.90;2.90;;;7.10;99.90;;;;;;5062520;28;20219;-65
2024/02/07 08:29:52;;;;;;;5.50;3.47;;;7.10;99.90;;;;;;5052624;28;20177;-65
2024/02/07 08:32:18;;;;;;;4.37;3.37;;;7.10;99.90;;;;;;5052010;28;20514;-65
2024/02/07 08:34:43;;;;;;;2.73;2.53;;;7.10;99.90;;;;;;5052452;28;20208;-65
2024/02/07 08:37:10;;;;;;;4.40;2.90;;;7.10;99.90;;;;;;5052021;28;20161;-66
2024/02/07 08:39:36;;;;;;;3.42;2.50;;;7.20;99.90;;;;;;5052337;28;20172;-66
2024/02/07 08:42:05;;;;;;;3.07;2.63;;;7.10;99.90;;;;;;5052082;28;20199;-65
2024/02/07 08:44:31;;;;;;;4.22;2.90;;;7.10;99.90;;;;;;5065820;28;20259;-65
2024/02/07 08:46:57;;;;;;;5.13;3.00;;;7.10;99.90;;;;;;5071565;28;20183;-65
2024/02/07 08:49:23;;;;;;;5.07;3.27;;;7.10;99.90;;;;;;5072262;28;20165;-65
2024/02/07 08:51:48;;;;;;;4.30;3.03;;;7.00;99.90;;;;;;5071589;28;20534;-66
2024/02/07 08:54:14;;;;;;;9.13;3.23;;;7.10;99.90;;;;;;5069140;28;20752;-66
2024/02/07 08:56:40;;;;;;;3.00;2.47;;;7.20;99.90;;;;;;5067424;28;20307;-66
2024/02/07 08:59:05;;;;;;;4.57;2.93;;;7.10;99.90;;;;;;5071486;28;20199;-66
2024/02/07 09:01:31;;;;;;;3.23;2.83;;;6.90;99.90;;;;;;5071999;28;20198;-65
2024/02/07 09:03:57;;;;;;;5.67;3.60;;;6.70;99.90;;;;;;5069501;28;20193;-66
2024/02/07 09:06:22;;;;;;;3.43;3.13;;;6.80;99.90;;;;;;5069578;28;20515;-66
2024/02/07 09:08:48;;;;;;;4.30;3.07;;;6.90;99.90;;;;;;5071417;28;20665;-66
2024/02/07 09:11:13;;;;;;;3.37;2.43;;;6.90;99.90;;;;;;5071090;28;20177;-67
2024/02/07 09:13:39;;;;;;;2.73;1.63;;;7.00;99.90;;;;;;5071478;28;20193;-67
2024/02/07 09:16:05;;;;;;;3.73;2.70;;;6.90;99.90;;;;;;5071099;28;20197;-66
2024/02/07 09:18:32;;;;;;;9.17;3.83;;;6.90;99.90;;;;;;5070022;28;20216;-66
2024/02/07 09:20:58;;;;;;;2.95;2.30;;;6.90;99.90;;;;;;5069782;28;20708;-66
2024/02/07 09:23:23;;;;;;;4.63;2.70;;;6.90;99.90;;;;;;5071360;28;20236;-66
2024/02/07 09:25:49;;;;;;;3.07;2.17;;;6.80;99.90;;;;;;5071544;28;20289;-66
2024/02/07 09:28:15;;;;;;;3.63;3.03;;;6.80;99.90;;;;;;5071212;28;20185;-66
2024/02/07 09:30:40;;;;;;;10.60;3.07;;;6.80;99.90;;;;;;5071510;28;20199;-66
2024/02/07 09:33:06;;;;;;;8.37;3.93;;;6.90;99.90;;;;;;5071583;28;20217;-65
2024/02/07 09:35:31;;;;;;;3.50;3.20;;;6.70;99.90;;;;;;5072281;28;20208;-65
2024/02/07 09:37:57;;;;;;;7.13;3.03;;;6.70;99.90;;;;;;5071888;28;20177;-66
2024/02/07 09:40:23;;;;;;;3.00;2.70;;;6.80;99.90;;;;;;5071126;28;20584;-65
2024/02/07 09:42:51;;;;;;;4.15;2.90;;;6.80;99.90;;;;;;5072188;28;20224;-65
2024/02/07 09:45:18;;;;;;;2.25;2.08;;;6.80;99.90;;;;;;5071096;28;20260;-66
2024/02/07 09:48:15;;;;;;;6.22;3.05;;;6.80;99.90;;;;;;5071494;28;20177;-65
2024/02/07 09:50:42;;;;;;;3.13;2.35;;;6.90;99.90;;;;;;5067908;28;20192;-65
2024/02/07 09:53:11;;;;;;;3.95;2.80;;;6.90;99.90;;;;;;5071421;28;20249;-65
2024/02/07 09:55:37;;;;;;;3.33;3.08;;;6.90;99.90;;;;;;5071479;28;20591;-65
2024/02/07 09:58:03;;;;;;;5.25;2.42;;;6.90;99.90;;;;;;5071127;28;20200;-66
2024/02/07 10:00:29;;;;;;;3.58;2.45;;;6.80;99.90;;;;;;5071239;28;20229;-65
2024/02/07 10:02:56;;;;;;;11.10;4.60;;;6.80;99.90;;;;;;5071236;28;20192;-65
2024/02/07 10:05:26;;;;;;;3.97;3.05;;;6.80;99.90;;;;;;5071187;28;20185;-65
2024/02/07 10:07:53;;;;;;;6.10;2.70;;;6.80;99.90;;;;;;5070787;28;20176;-66
2024/02/07 10:10:19;;;;;;;12.98;3.15;;;6.80;99.90;;;;;;5071167;28;20277;-65
2024/02/07 10:12:45;;;;;;;5.70;3.00;;;6.90;99.90;;;;;;5071111;28;20273;-65
2024/02/07 10:15:11;;;;;;;7.00;3.13;;;6.90;99.90;;;;;;5071059;28;20465;-65
2024/02/07 10:17:37;;;;;;;7.22;3.58;;;6.90;99.90;;;;;;5070806;28;20954;-66
2024/02/07 10:20:09;;;;;;;4.90;2.53;;;6.90;99.90;;;;;;5071574;28;20174;-65
2024/02/07 10:22:41;;;;;;;6.30;3.78;;;7.10;99.90;;;;;;5073306;28;20445;-65
2024/02/07 10:25:14;;;;;;;2.70;2.50;;;7.20;99.90;;;;;;5076175;28;20177;-64
2024/02/07 10:27:41;;;;;;;3.17;2.28;;;7.40;99.90;;;;;;5075594;28;20222;-65
2024/02/07 10:30:09;;;;;;;3.50;3.20;;;7.40;99.90;;;;;;5075806;28;20176;-65
2024/02/07 10:32:35;;;;;;;7.95;2.92;;;7.40;99.90;;;;;;5075898;28;20230;-65
2024/02/07 10:35:03;;;;;;;3.38;3.05;;;7.40;99.90;;;;;;5076094;28;20201;-65
2024/02/07 10:37:41;;;;;;;3.28;2.60;;;7.50;99.90;;;;;;5076419;28;20227;-65
2024/02/07 10:40:07;;;;;;;6.00;2.70;;;7.60;99.90;;;;;;5074074;28;20568;-64
2024/02/07 10:42:33;;;;;;;2.72;2.53;;;7.70;99.90;;;;;;5075319;28;20200;-65
2024/02/07 10:45:10;;;;;;;6.97;3.47;;;7.70;99.90;;;;;;5075251;28;20177;-64
2024/02/07 10:47:37;;;;;;;2.30;2.05;;;7.70;99.90;;;;;;5074939;28;20233;-64
2024/02/07 10:50:05;;;;;;;3.70;2.88;;;7.80;99.90;;;;;;5075085;28;20180;-65
2024/02/07 10:52:32;;;;;;;4.80;2.40;;;7.80;99.90;;;;;;5074960;28;20192;-65
2024/02/07 10:54:58;;;;;;;6.32;3.38;;;7.80;99.90;;;;;;5074760;28;20215;-64
2024/02/07 10:57:38;;;;;;;3.70;3.03;;;7.80;99.90;;;;;;5074814;28;20200;-64
2024/02/07 11:00:06;;;;;;;3.17;2.88;;;7.70;99.90;;;;;;5074636;28;20587;-64
2024/02/07 11:02:32;;;;;;;4.03;3.45;;;7.70;99.90;;;;;;5073592;28;20221;-65
2024/02/07 11:05:00;;;;;;;3.33;3.05;;;7.70;99.90;;;;;;5074163;28;20188;-65
2024/02/07 11:07:26;;;;;;;3.60;3.30;;;7.60;99.90;;;;;;5079376;28;20216;-65
2024/02/07 11:09:53;;;;;;;3.77;3.33;;;7.60;99.90;;;;;;5085997;28;20204;-65
2024/02/07 11:12:19;;;;;;;3.80;3.30;;;7.50;99.90;;;;;;5094756;28;20915;-65
2024/02/07 11:14:46;;;;;;;6.40;2.50;;;7.60;99.90;;;;;;5094610;28;20200;-65
2024/02/07 11:17:16;;;;;;;2.20;2.00;;;7.60;99.90;;;;;;5094770;28;20239;-64
2024/02/07 11:19:43;;;;;;;3.80;2.95;;;7.50;99.90;;;;;;5095015;28;20538;-64
2024/02/07 11:22:32;;;;;;;3.67;3.10;;;7.40;99.90;;;;;;5094853;28;20168;-65
2024/02/07 11:24:58;;;;;;;2.67;2.47;;;7.50;99.90;;;;;;5094561;28;20188;-65
2024/02/07 11:27:24;;;;;;;3.80;3.35;;;7.40;99.90;;;;;;5090646;28;20191;-65
2024/02/07 11:29:50;;;;;;;2.53;2.03;;;7.40;99.90;;;;;;5085357;28;20177;-65
2024/02/07 11:32:16;;;;;;;3.83;2.50;;;7.40;99.90;;;;;;5093149;28;20642;-65
2024/02/07 11:34:42;;;;;;;4.70;3.80;;;7.50;99.90;;;;;;5093156;28;20442;-66
2024/02/07 11:37:09;;;;;;;3.00;2.70;;;7.60;99.90;;;;;;5094073;28;20171;-65
2024/02/07 11:39:42;;;;;;;4.60;2.83;;;7.70;99.90;;;;;;5094044;28;20434;-65
2024/02/07 11:42:15;;;;;;;4.03;3.20;;;7.60;99.90;;;;;;5094616;28;20594;-64
2024/02/07 11:44:59;;;;;;;4.90;2.85;;;7.70;99.90;;;;;;5096050;28;20195;-64
2024/02/07 11:47:32;;;;;;;5.10;2.63;;;7.70;99.90;;;;;;5094442;28;20241;-64
2024/02/07 11:50:02;;;;;;;2.83;2.63;;;7.60;99.90;;;;;;5095275;28;20171;-64
2024/02/07 11:52:38;;;;;;;3.60;3.30;;;7.70;99.90;;;;;;5095372;28;20337;-64
2024/02/07 11:55:17;;;;;;;3.95;2.47;;;7.90;99.90;;;;;;5094977;28;20667;-64
2024/02/07 11:57:53;;;;;;;5.57;3.00;;;7.90;99.90;;;;;;5095021;28;20165;-63
2024/02/07 12:00:21;;;;;;;8.80;2.95;;;7.80;99.90;;;;;;5095570;28;20172;-64
2024/02/07 12:02:52;;;;;;;4.68;3.10;;;7.90;99.90;;;;;;5095276;28;20184;-64
2024/02/07 12:05:20;;;;;;;3.55;3.15;;;7.80;99.90;;;;;;5095194;28;20226;-64
2024/02/07 12:07:49;;;;;;;5.60;3.25;;;7.90;99.90;;;;;;5095443;28;20171;-64
2024/02/07 12:10:15;;;;;;;2.35;2.15;;;7.90;99.90;;;;;;5095150;28;20177;-64
2024/02/07 12:12:40;;;;;;;2.80;2.60;;;7.80;99.90;;;;;;5095172;28;20215;-64
2024/02/07 12:15:06;;;;;;;8.17;3.60;;;7.80;99.90;;;;;;5095276;28;20199;-64
2024/02/07 12:17:34;;;;;;;10.18;3.53;;;7.80;99.90;;;;;;5094875;28;20199;-64
2024/02/07 12:20:01;;;;;;;3.53;2.85;;;7.90;99.90;;;;;;5094854;28;20595;-64
2024/02/07 12:22:28;;;;;;;6.10;2.88;;;8.00;99.90;;;;;;5094850;28;20195;-64
2024/02/07 12:24:54;;;;;;;2.53;2.22;;;7.90;99.90;;;;;;5094872;28;20219;-64
2024/02/07 12:27:19;;;;;;;6.03;3.40;;;7.90;99.90;;;;;;5095470;28;20173;-64
2024/02/07 12:29:53;;;;;;;4.87;2.73;;;7.80;99.90;;;;;;5095215;28;20903;-64
2024/02/07 12:32:19;;;;;;;4.00;2.35;;;7.80;99.90;;;;;;5095001;28;20173;-64
2024/02/07 12:34:45;;;;;;;5.28;2.95;;;7.80;99.90;;;;;;5095020;28;20613;-64
2024/02/07 12:37:16;;;;;;;3.85;3.30;;;7.90;99.90;;;;;;5094468;28;20165;-63
2024/02/07 12:39:49;;;;;;;8.63;6.57;;;7.90;99.90;;;;;;5094788;28;20169;-64
2024/02/07 12:42:16;;;;;;;2.75;2.50;;;7.80;99.90;;;;;;5094709;28;20183;-65
2024/02/07 12:44:42;;;;;;;4.53;2.60;;;7.80;99.90;;;;;;5093825;28;20172;-64
2024/02/07 12:47:09;;;;;;;4.47;3.43;;;7.70;99.90;;;;;;5094415;28;20180;-64
2024/02/07 12:49:35;;;;;;;3.28;2.30;;;7.90;99.90;;;;;;5094665;28;20409;-64
2024/02/07 12:52:01;;;;;;;4.05;2.70;;;8.00;99.90;;;;;;5094631;28;20173;-64
2024/02/07 12:54:28;;;;;;;3.10;1.83;;;7.90;99.90;;;;;;5094248;28;20280;-64
2024/02/07 12:56:54;;;;;;;2.97;2.47;;;7.90;99.90;;;;;;5093978;28;20407;-63
2024/02/07 12:59:32;;;;;;;3.60;3.03;;;7.90;99.90;;;;;;5094158;28;20169;-64
2024/02/07 13:01:58;;;;;;;7.00;3.22;;;7.90;99.90;;;;;;5094023;28;20625;-64
2024/02/07 13:04:24;;;;;;;8.30;4.20;;;8.00;99.90;;;;;;5094230;28;20203;-64
2024/02/07 13:06:50;;;;;;;5.33;3.67;;;8.00;99.90;;;;;;5093964;28;20173;-64
2024/02/07 13:09:15;;;;;;;6.97;6.05;;;8.00;99.90;;;;;;5094152;28;20184;-65
2024/02/07 13:11:41;;;;;;;5.20;4.90;;;8.00;99.90;;;;;;5094412;28;20186;-64
2024/02/07 13:14:06;;;;;;;3.77;2.73;;;8.00;99.90;;;;;;5094135;28;20712;-64
2024/02/07 13:16:33;;;;;;;6.60;3.20;;;8.00;99.90;;;;;;5093744;28;20161;-64
2024/02/07 13:18:59;;;;;;;7.13;3.22;;;8.10;99.90;;;;;;5093827;28;20360;-64
2024/02/07 13:21:25;;;;;;;4.60;2.40;;;8.10;99.90;;;;;;5093565;28;20347;-64
2024/02/07 13:23:50;;;;;;;4.00;2.70;;;8.10;99.90;;;;;;5094367;28;20246;-64
2024/02/07 13:26:21;;;;;;;3.60;2.03;;;8.10;99.90;;;;;;5093587;28;20706;-63
2024/02/07 13:28:50;;;;;;;9.57;3.25;;;8.20;99.90;;;;;;5094299;28;20660;-64
2024/02/07 13:31:16;;;;;;;4.15;2.63;;;8.30;99.90;;;;;;5093905;28;20463;-64
2024/02/07 13:33:41;;;;;;;4.15;2.40;;;8.30;99.90;;;;;;5093646;28;20512;-65
2024/02/07 13:36:07;;;;;;;5.60;2.70;;;8.30;99.90;;;;;;5093485;28;20196;-64
2024/02/07 13:38:33;;;;;;;3.73;2.20;;;8.30;99.90;;;;;;5093885;28;20229;-64
2024/02/07 13:40:58;;;;;;;4.47;2.63;;;8.30;99.90;;;;;;5093568;28;20173;-63
2024/02/07 13:43:24;;;;;;;4.37;2.20;;;8.30;99.90;;;;;;5093582;28;20197;-64
2024/02/07 13:45:50;;;;;;;3.70;2.97;;;8.30;99.90;;;;;;5093609;28;20175;-63
2024/02/07 13:48:15;;;;;;;5.90;3.07;;;8.20;99.90;;;;;;5093613;28;20247;-64
2024/02/07 13:50:41;;;;;;;4.37;3.07;;;8.20;99.90;;;;;;5094379;28;20204;-64
2024/02/07 13:53:08;;;;;;;4.10;3.33;;;8.20;99.90;;;;;;5094078;28;20185;-64
2024/02/07 13:55:37;;;;;;;3.15;2.63;;;8.10;99.90;;;;;;5092831;28;20295;-64
2024/02/07 13:58:03;;;;;;;4.43;2.47;;;8.10;99.90;;;;;;5097042;28;20180;-64
2024/02/07 14:00:29;;;;;;;3.73;2.03;;;8.20;99.90;;;;;;5097818;28;20168;-64
2024/02/07 14:02:54;;;;;;;6.40;2.93;;;8.20;99.90;;;;;;5097722;28;20220;-63
2024/02/07 14:05:21;;;;;;;5.23;2.73;;;8.00;99.90;;;;;;5097447;28;20234;-63